Time;durP1;ratioP1;P1;durP2;ratioP2;P2;SDS_P1;SDS_P2;PMS_P1;PMS_P2;Temp;Humidity;BMP_temperature;BMP_pressure;BME280_temperature;BME280_humidity;BME280_pressure;Samples;Min_cycle;Max_cycle;Signal;HPM_P1;HPM_P2
2023/01/25 00:00:05;;;;;;;21.40;8.50;;;;;;;-1.33;87.09;101952.39;108858;1252;1002243;-69
2023/01/25 00:03:13;;;;;;;21.10;8.90;;;;;;;-1.33;87.22;101947.33;108815;1252;1002263;-69
2023/01/25 00:06:01;;;;;;;20.30;9.40;;;;;;;-1.36;87.55;101943.33;109498;1252;71163;-70
2023/01/25 00:08:50;;;;;;;22.30;9.30;;;;;;;-1.37;87.57;101941.41;109553;1251;58910;-68
2023/01/25 00:11:39;;;;;;;25.00;10.20;;;;;;;-1.39;87.59;101935.81;109700;1253;60889;-69
2023/01/25 00:14:27;;;;;;;23.10;9.00;;;;;;;-1.41;87.95;101930.25;109645;1252;71406;-70
2023/01/25 00:17:15;;;;;;;18.70;7.80;;;;;;;-1.41;87.90;101925.38;109578;1253;68919;-70
2023/01/25 00:20:04;;;;;;;18.30;7.60;;;;;;;-1.43;87.86;101926.77;109597;1252;72478;-71
2023/01/25 00:22:52;;;;;;;19.20;7.90;;;;;;;-1.47;88.07;101922.58;109497;1251;57235;-68
2023/01/25 00:25:40;;;;;;;21.70;8.30;;;;;;;-1.51;88.19;101915.27;108780;1252;1002103;-69
2023/01/25 00:28:28;;;;;;;19.30;8.00;;;;;;;-1.54;88.42;101912.48;109546;1252;73970;-68
2023/01/25 00:31:32;;;;;;;21.80;9.20;;;;;;;-1.56;88.35;101907.08;109598;1251;68019;-68
2023/01/25 00:34:25;;;;;;;23.10;8.10;;;;;;;-1.57;88.65;101895.92;109498;1253;71632;-69
2023/01/25 00:37:17;;;;;;;19.20;8.70;;;;;;;-1.57;88.78;101887.21;109573;1252;57324;-69
2023/01/25 00:40:06;;;;;;;19.80;8.80;;;;;;;-1.61;88.98;101884.60;109584;1252;59176;-70
2023/01/25 00:42:54;;;;;;;17.70;7.40;;;;;;;-1.66;89.02;101881.29;109611;1252;73800;-68
2023/01/25 00:45:42;;;;;;;18.30;8.10;;;;;;;-1.73;89.27;101882.14;109595;1252;67609;-69
2023/01/25 00:48:30;;;;;;;20.70;7.80;;;;;;;-1.78;89.59;101882.14;109592;1252;72781;-69
2023/01/25 00:51:20;;;;;;;20.70;8.40;;;;;;;-1.82;89.81;101872.89;108792;1252;1002079;-70
2023/01/25 00:54:08;;;;;;;20.50;7.80;;;;;;;-1.82;89.56;101868.19;109582;1253;59224;-69
2023/01/25 00:56:57;;;;;;;22.40;9.20;;;;;;;-1.82;89.61;101861.05;109614;1252;73149;-68
2023/01/25 00:59:46;;;;;;;17.80;7.80;;;;;;;-1.81;89.43;101858.45;109618;1252;67107;-69
2023/01/25 01:02:34;;;;;;;18.50;8.50;;;;;;;-1.83;89.43;101857.05;108817;1251;1002535;-70
2023/01/25 01:05:22;;;;;;;18.60;8.60;;;;;;;-1.90;89.82;101848.34;109570;1252;57765;-70
2023/01/25 01:08:14;;;;;;;18.90;8.00;;;;;;;-1.95;89.85;101841.54;109610;1252;61523;-69
2023/01/25 01:11:05;;;;;;;22.40;8.40;;;;;;;-1.99;89.87;101841.71;109345;1252;73643;-69
2023/01/25 01:13:56;;;;;;;19.00;8.40;;;;;;;-2.00;89.88;101845.36;108694;1252;1002326;-70
2023/01/25 01:16:45;;;;;;;18.30;6.30;;;;;;;-2.00;90.04;101848.48;109525;1251;74127;-71
2023/01/25 01:19:33;;;;;;;21.70;9.10;;;;;;;-2.04;90.18;101849.70;109544;1252;57296;-70
2023/01/25 01:22:20;;;;;;;26.70;8.30;;;;;;;-2.09;90.11;101846.36;109600;1252;58962;-70
2023/01/25 01:25:09;;;;;;;18.80;7.60;;;;;;;-2.13;90.14;101850.70;109576;1251;71598;-70
2023/01/25 01:27:57;;;;;;;18.20;7.90;;;;;;;-2.18;90.11;101852.60;109619;1253;67984;-70
2023/01/25 01:30:45;;;;;;;22.20;8.30;;;;;;;-2.21;89.93;101854.68;109552;1252;71169;-70
2023/01/25 01:33:33;;;;;;;20.20;8.10;;;;;;;-2.22;90.09;101860.58;109577;1252;57421;-69
2023/01/25 01:36:25;;;;;;;19.60;8.70;;;;;;;-2.24;89.98;101854.49;109597;1251;58977;-70
2023/01/25 01:39:13;;;;;;;20.30;8.90;;;;;;;-2.24;89.69;101843.88;109616;1252;73206;-69
2023/01/25 01:42:02;;;;;;;24.40;9.10;;;;;;;-2.25;89.74;101842.33;109594;1252;67858;-69
2023/01/25 01:44:53;;;;;;;16.40;6.30;;;;;;;-2.28;89.45;101837.09;109624;1251;71362;-69
2023/01/25 01:47:44;;;;;;;20.20;8.80;;;;;;;-2.34;89.39;101833.41;109551;1251;59093;-69
2023/01/25 01:50:33;;;;;;;19.80;8.80;;;;;;;-2.40;89.57;101830.45;109594;1251;58245;-70
2023/01/25 01:53:24;;;;;;;21.00;8.60;;;;;;;-2.40;89.58;101828.68;109563;1251;73091;-68
2023/01/25 01:56:20;;;;;;;18.30;7.80;;;;;;;-2.40;89.64;101828.86;109322;1252;67990;-69
2023/01/25 01:59:10;;;;;;;21.50;9.10;;;;;;;-2.45;89.36;101825.55;108753;1251;1002266;-70
2023/01/25 02:01:58;;;;;;;20.80;8.40;;;;;;;-2.42;89.48;101818.60;108682;1251;1002152;-69
2023/01/25 02:04:48;;;;;;;24.10;8.90;;;;;;;-2.47;89.43;101816.84;109581;1251;60281;-68
2023/01/25 02:07:37;;;;;;;18.60;8.20;;;;;;;-2.51;89.42;101818.73;109531;1252;73135;-70
2023/01/25 02:10:27;;;;;;;18.10;8.10;;;;;;;-2.52;89.57;101809.52;109424;1252;67670;-69
2023/01/25 02:13:18;;;;;;;18.70;7.50;;;;;;;-2.53;89.56;101806.57;109284;1252;73419;-70
2023/01/25 02:16:16;;;;;;;18.90;7.10;;;;;;;-2.55;89.45;101808.30;109595;1251;57384;-70
2023/01/25 02:19:07;;;;;;;19.10;8.40;;;;;;;-2.57;89.33;101818.02;109463;1252;60042;-69
2023/01/25 02:21:57;;;;;;;19.60;8.00;;;;;;;-2.61;89.32;101816.77;109496;1251;73078;-70
2023/01/25 02:24:55;;;;;;;18.50;8.10;;;;;;;-2.69;89.40;101806.32;109628;1251;67891;-70
2023/01/25 02:28:15;;;;;;;16.60;7.50;;;;;;;-2.66;89.29;101816.40;109534;1251;72947;-69
2023/01/25 02:31:04;;;;;;;20.50;9.00;;;;;;;-2.69;89.39;101813.10;109366;1251;60132;-70
2023/01/25 02:33:52;;;;;;;17.10;8.40;;;;;;;-2.68;89.44;101820.73;109568;1253;60204;-69
2023/01/25 02:36:40;;;;;;;17.00;6.20;;;;;;;-2.64;89.59;101817.81;109572;1251;73790;-69
2023/01/25 02:39:29;;;;;;;17.30;6.70;;;;;;;-2.63;89.23;101810.16;109615;1253;68048;-69
2023/01/25 02:42:16;;;;;;;21.90;8.90;;;;;;;-2.64;89.18;101802.69;109626;1252;71532;-68
2023/01/25 02:45:08;;;;;;;22.00;8.40;;;;;;;-2.68;89.23;101794.33;108793;1251;1002808;-68
2023/01/25 02:47:56;;;;;;;21.60;8.60;;;;;;;-2.64;89.39;101799.05;109548;1252;59285;-68
2023/01/25 02:50:44;;;;;;;22.90;8.70;;;;;;;-2.65;89.05;101788.95;109572;1252;71870;-70
2023/01/25 02:53:32;;;;;;;25.90;9.30;;;;;;;-2.68;89.06;101789.30;109631;1252;67576;-69
2023/01/25 02:56:22;;;;;;;16.50;6.90;;;;;;;-2.75;89.09;101786.30;109470;1252;183708;-70
2023/01/25 02:59:12;;;;;;;21.70;8.50;;;;;;;-2.76;88.57;101787.17;109475;1252;57544;-69
2023/01/25 03:02:01;;;;;;;23.50;10.10;;;;;;;-2.79;88.68;101792.02;109409;1251;60350;-68
2023/01/25 03:04:50;;;;;;;22.30;8.30;;;;;;;-2.82;88.47;101796.17;109468;1253;72819;-69
2023/01/25 03:07:38;;;;;;;19.80;8.80;;;;;;;-2.85;88.42;101795.29;108780;1251;1002776;-68
2023/01/25 03:10:27;;;;;;;24.30;9.20;;;;;;;-2.88;88.76;101794.93;109585;1253;72917;-69
2023/01/25 03:13:15;;;;;;;21.90;8.50;;;;;;;-2.91;88.62;101781.70;109346;1251;57947;-68
2023/01/25 03:16:08;;;;;;;20.20;8.80;;;;;;;-2.92;88.68;101775.63;109619;1251;58735;-69
2023/01/25 03:18:57;;;;;;;20.00;8.40;;;;;;;-2.95;88.69;101773.86;109469;1251;73108;-69
2023/01/25 03:21:46;;;;;;;22.10;8.90;;;;;;;-2.95;88.98;101773.01;108802;1252;1002336;-68
2023/01/25 03:24:34;;;;;;;21.00;9.10;;;;;;;-2.93;89.19;101775.45;109588;1253;72812;-68
2023/01/25 03:27:23;;;;;;;22.90;10.20;;;;;;;-2.97;89.21;101773.16;109585;1252;57919;-68
2023/01/25 03:30:14;;;;;;;21.20;9.40;;;;;;;-3.02;89.14;101770.01;109562;1251;61091;-69
2023/01/25 03:33:02;;;;;;;21.70;8.30;;;;;;;-3.03;89.32;101766.00;109521;1251;72690;-68
2023/01/25 03:35:54;;;;;;;21.10;9.60;;;;;;;-3.02;89.46;101764.09;109583;1252;67861;-68
2023/01/25 03:38:42;;;;;;;19.30;8.20;;;;;;;-3.01;89.67;101760.45;108673;1252;1002188;-68
2023/01/25 03:41:31;;;;;;;21.10;8.70;;;;;;;-3.00;89.40;101758.39;109411;1255;59459;-70
2023/01/25 03:44:19;;;;;;;21.70;9.50;;;;;;;-3.02;89.59;101751.24;109621;1252;59986;-69
2023/01/25 03:47:07;;;;;;;20.40;8.40;;;;;;;-3.05;89.86;101743.23;109610;1252;73849;-69
2023/01/25 03:49:55;;;;;;;22.70;9.10;;;;;;;-3.02;89.81;101748.13;108816;1251;1002062;-70
2023/01/25 03:52:46;;;;;;;18.70;8.20;;;;;;;-3.06;90.13;101744.97;109551;1252;74035;-70
2023/01/25 03:55:34;;;;;;;23.60;9.70;;;;;;;-3.07;90.21;101740.27;109594;1252;57539;-69
2023/01/25 03:58:23;;;;;;;21.90;8.00;;;;;;;-3.04;90.41;101737.34;108836;1253;1002890;-70
2023/01/25 04:01:12;;;;;;;21.60;8.20;;;;;;;-3.04;90.42;101735.60;108654;1251;1002285;-69
2023/01/25 04:04:00;;;;;;;20.30;7.80;;;;;;;-3.06;90.52;101730.55;109387;1252;67882;-69
2023/01/25 04:06:48;;;;;;;25.30;9.50;;;;;;;-3.06;90.84;101730.90;109582;1251;72907;-69
2023/01/25 04:09:37;;;;;;;23.50;9.50;;;;;;;-3.09;90.84;101716.48;109610;1251;57297;-70
2023/01/25 04:12:26;;;;;;;24.80;10.00;;;;;;;-3.09;91.27;101709.53;109602;1251;60187;-69
2023/01/25 04:15:14;;;;;;;25.30;9.10;;;;;;;-3.10;91.52;101709.02;108826;1253;1002436;-69
2023/01/25 04:18:02;;;;;;;21.70;8.50;;;;;;;-3.05;91.66;101710.95;109612;1251;66911;-68
2023/01/25 04:20:55;;;;;;;22.60;9.10;;;;;;;-3.03;91.81;101708.17;108782;1253;1002142;-70
2023/01/25 04:23:43;;;;;;;26.20;10.00;;;;;;;-3.02;91.67;101709.05;109548;1253;57312;-70
2023/01/25 04:26:31;;;;;;;26.30;10.30;;;;;;;-3.01;92.21;101708.70;109555;1252;59056;-69
2023/01/25 04:29:20;;;;;;;23.90;8.90;;;;;;;-3.00;92.15;101707.83;109342;1253;73174;-69
2023/01/25 04:32:22;;;;;;;23.00;9.30;;;;;;;-2.99;92.08;101701.23;109557;1253;67664;-69
2023/01/25 04:35:10;;;;;;;25.60;10.20;;;;;;;-2.96;92.26;101699.52;109556;1251;72366;-71
2023/01/25 04:37:59;;;;;;;25.90;11.10;;;;;;;-2.95;92.51;101696.58;109581;1253;57259;-70
2023/01/25 04:40:56;;;;;;;24.80;8.40;;;;;;;-2.94;92.56;101691.70;109626;1251;59178;-71
2023/01/25 04:43:44;;;;;;;31.70;10.80;;;;;;;-2.94;93.01;101684.59;108814;1252;1003026;-69
2023/01/25 04:46:33;;;;;;;29.10;10.00;;;;;;;-2.94;93.22;101672.77;109607;1252;65527;-70
2023/01/25 04:49:21;;;;;;;30.30;10.30;;;;;;;-2.96;93.90;101668.95;109561;1252;71619;-69
2023/01/25 04:52:09;;;;;;;29.50;10.40;;;;;;;-2.95;94.02;101667.22;108697;1252;1002460;-69
2023/01/25 04:54:57;;;;;;;27.00;9.50;;;;;;;-2.93;94.13;101666.01;109602;1253;59379;-70
2023/01/25 04:57:48;;;;;;;27.80;10.30;;;;;;;-2.93;94.52;101665.48;109629;1252;73718;-69
2023/01/25 05:00:37;;;;;;;24.60;9.20;;;;;;;-2.90;94.42;101662.55;108627;1252;1002438;-68
2023/01/25 05:03:25;;;;;;;28.80;10.50;;;;;;;-2.90;94.75;101654.20;109443;1253;72354;-69
2023/01/25 05:06:14;;;;;;;26.20;9.60;;;;;;;-2.92;94.87;101655.07;109517;1253;58951;-68
2023/01/25 05:09:02;;;;;;;28.80;9.60;;;;;;;-2.91;94.81;101657.14;109433;1254;60865;-69
2023/01/25 05:11:50;;;;;;;27.80;9.80;;;;;;;-2.90;95.09;101655.42;109577;1254;72044;-71
2023/01/25 05:14:55;;;;;;;30.70;10.90;;;;;;;-2.86;94.80;101656.83;109491;1254;67873;-67
2023/01/25 05:17:43;;;;;;;27.80;9.20;;;;;;;-2.83;94.98;101666.73;109362;1252;72956;-68
2023/01/25 05:20:30;;;;;;;25.70;9.70;;;;;;;-2.80;95.11;101673.86;109475;1252;58498;-71
2023/01/25 05:23:19;;;;;;;31.70;11.90;;;;;;;-2.78;95.06;101671.79;108659;1253;1002736;-70
2023/01/25 05:29:13;;;;;;;32.40;10.60;;;;;;;-2.71;94.78;101663.47;109418;1253;67889;-68
2023/01/25 05:32:21;;;;;;;31.80;12.00;;;;;;;-2.69;94.67;101660.17;108718;1254;1002237;-69
2023/01/25 05:35:09;;;;;;;34.10;11.70;;;;;;;-2.66;94.40;101666.10;109492;1253;57300;-69
2023/01/25 05:37:59;;;;;;;29.90;9.70;;;;;;;-2.62;94.37;101658.98;109563;1252;60300;-73
2023/01/25 05:40:47;;;;;;;30.30;11.50;;;;;;;-2.57;94.17;101660.03;109579;1253;72765;-70
2023/01/25 05:43:35;;;;;;;29.30;11.30;;;;;;;-2.54;94.11;101664.02;109605;1253;68696;-69
2023/01/25 05:46:26;;;;;;;27.50;10.70;;;;;;;-2.51;93.98;101664.04;109544;1252;72547;-70
2023/01/25 05:49:16;;;;;;;31.60;11.20;;;;;;;-2.51;93.69;101657.09;109478;1251;57359;-70
2023/01/25 05:52:04;;;;;;;31.50;10.70;;;;;;;-2.51;93.51;101658.30;109502;1251;59382;-68
2023/01/25 05:54:53;;;;;;;30.40;9.70;;;;;;;-2.51;93.73;101652.73;109574;1251;70775;-70
2023/01/25 05:57:41;;;;;;;31.10;12.10;;;;;;;-2.57;93.65;101648.21;109571;1252;66747;-67
2023/01/25 06:00:29;;;;;;;35.50;12.40;;;;;;;-2.54;93.85;101655.86;108783;1253;1002722;-69
2023/01/25 06:03:16;;;;;;;27.80;10.30;;;;;;;-2.51;94.00;101656.73;108785;1252;1002845;-69
2023/01/25 06:06:05;;;;;;;22.10;9.00;;;;;;;-2.50;93.95;101656.22;109544;1251;60361;-71
2023/01/25 06:08:54;;;;;;;26.40;10.00;;;;;;;-2.48;93.88;101654.48;109529;1253;72991;-72
2023/01/25 06:11:46;;;;;;;29.40;11.20;;;;;;;-2.48;93.73;101653.61;109524;1252;67818;-70
2023/01/25 06:14:33;;;;;;;28.40;10.90;;;;;;;-2.47;93.83;101653.61;109526;1252;72805;-71
2023/01/25 06:17:22;;;;;;;29.10;11.20;;;;;;;-2.47;93.95;101656.39;109491;1252;58607;-69
2023/01/25 06:20:39;;;;;;;26.60;10.30;;;;;;;-2.48;93.90;101652.40;109433;1252;61441;-69
2023/01/25 06:23:28;;;;;;;26.30;9.10;;;;;;;-2.48;93.91;101647.89;109450;1253;72903;-69
2023/01/25 06:26:16;;;;;;;23.10;8.70;;;;;;;-2.47;93.84;101644.41;109543;1252;66434;-67
2023/01/25 06:29:05;;;;;;;29.70;11.50;;;;;;;-2.46;93.77;101641.09;109569;1252;72607;-67
2023/01/25 06:31:54;;;;;;;26.40;9.50;;;;;;;-2.46;93.87;101633.45;109572;1253;57670;-69
2023/01/25 06:34:42;;;;;;;27.20;10.10;;;;;;;-2.43;93.46;101638.33;109552;1253;60392;-70
2023/01/25 06:37:36;;;;;;;21.00;8.70;;;;;;;-2.44;93.42;101633.30;108773;1252;1002795;-69
2023/01/25 06:40:25;;;;;;;25.00;10.30;;;;;;;-2.42;93.51;101635.02;109568;1253;66765;-69
2023/01/25 06:43:13;;;;;;;22.00;8.10;;;;;;;-2.38;93.60;101635.02;109565;1253;72792;-68
2023/01/25 06:46:05;;;;;;;23.30;9.30;;;;;;;-2.37;93.40;101635.03;109535;1252;57522;-70
2023/01/25 06:48:53;;;;;;;25.50;10.30;;;;;;;-2.36;93.32;101634.14;109582;1252;61560;-68
2023/01/25 06:51:40;;;;;;;28.30;11.30;;;;;;;-2.40;93.21;101629.98;108774;1253;1002437;-68
2023/01/25 06:54:29;;;;;;;22.80;10.40;;;;;;;-2.38;93.01;101634.33;109529;1252;67766;-70
2023/01/25 06:57:17;;;;;;;27.80;11.30;;;;;;;-2.39;93.05;101636.23;109558;1252;74265;-68
2023/01/25 07:00:07;;;;;;;22.20;8.90;;;;;;;-2.38;93.14;101630.15;109552;1253;57415;-69
2023/01/25 07:02:55;;;;;;;24.50;9.80;;;;;;;-2.37;93.21;101628.08;109535;1253;60203;-69
2023/01/25 07:05:43;;;;;;;19.70;8.30;;;;;;;-2.38;93.18;101629.64;109607;1252;72661;-67
2023/01/25 07:08:33;;;;;;;21.70;9.10;;;;;;;-2.39;93.12;101622.67;109586;1252;68928;-69
2023/01/25 07:11:21;;;;;;;20.80;8.60;;;;;;;-2.38;93.01;101632.42;109485;1251;72628;-68
2023/01/25 07:14:09;;;;;;;24.10;9.50;;;;;;;-2.37;93.04;101633.80;109536;1253;58841;-69
2023/01/25 07:16:58;;;;;;;26.50;10.50;;;;;;;-2.34;93.04;101634.15;109525;1252;60480;-70
2023/01/25 07:19:48;;;;;;;22.90;10.70;;;;;;;-2.29;93.15;101630.34;108784;1252;1002282;-68
2023/01/25 07:22:36;;;;;;;26.80;10.50;;;;;;;-2.25;92.71;101621.13;109506;1252;66671;-69
2023/01/25 07:25:24;;;;;;;27.60;10.80;;;;;;;-2.20;92.64;101615.04;109542;1253;72800;-69
2023/01/25 07:28:14;;;;;;;19.90;8.90;;;;;;;-2.14;92.67;101619.90;109566;1252;58736;-68
2023/01/25 07:31:06;;;;;;;23.30;7.90;;;;;;;-2.09;92.36;101617.98;109539;1253;59987;-70
2023/01/25 07:33:57;;;;;;;24.70;10.70;;;;;;;-2.11;91.61;101622.67;109513;1252;73814;-69
2023/01/25 07:36:45;;;;;;;21.10;9.10;;;;;;;-2.11;91.78;101619.73;109603;1252;68562;-70
2023/01/25 07:39:33;;;;;;;19.30;9.20;;;;;;;-2.10;91.73;101618.33;109591;1252;70830;-71
2023/01/25 07:42:24;;;;;;;21.60;8.60;;;;;;;-2.07;91.86;101616.08;109536;1253;58635;-68
2023/01/25 07:45:29;;;;;;;22.80;11.00;;;;;;;-2.04;91.82;101611.20;109551;1253;61418;-71
2023/01/25 07:48:19;;;;;;;25.70;10.90;;;;;;;-1.99;91.77;101606.68;108800;1253;1002369;-69
2023/01/25 07:51:21;;;;;;;23.40;10.10;;;;;;;-1.95;91.40;101600.41;109613;1253;66417;-69
2023/01/25 07:54:11;;;;;;;29.00;11.60;;;;;;;-1.93;91.19;101600.05;109615;1253;72441;-71
2023/01/25 07:56:58;;;;;;;20.40;9.50;;;;;;;-1.89;91.13;101605.78;109534;1253;58810;-69
2023/01/25 07:59:47;;;;;;;20.40;8.30;;;;;;;-1.85;90.78;101598.30;109555;1253;60118;-68
2023/01/25 08:02:35;;;;;;;22.50;9.10;;;;;;;-1.86;90.20;101595.18;109535;1255;72609;-68
2023/01/25 08:05:24;;;;;;;17.60;8.60;;;;;;;-1.88;90.29;101594.48;109508;1253;67746;-68
2023/01/25 08:08:11;;;;;;;20.70;9.90;;;;;;;-1.87;90.28;101589.27;109548;1251;72377;-67
2023/01/25 08:11:25;;;;;;;21.70;9.60;;;;;;;-1.89;90.13;101591.88;108840;1251;1002893;-69
2023/01/25 08:14:14;;;;;;;22.10;10.40;;;;;;;-1.95;90.15;101590.48;109466;1253;60308;-67
2023/01/25 08:17:01;;;;;;;25.40;11.60;;;;;;;-1.95;90.30;101587.17;109582;1252;73068;-70
2023/01/25 08:19:49;;;;;;;23.60;10.50;;;;;;;-1.87;90.48;101580.73;109499;1253;69498;-70
2023/01/25 08:22:37;;;;;;;23.70;9.70;;;;;;;-1.79;90.20;101582.29;109529;1253;71821;-73
2023/01/25 08:25:25;;;;;;;22.30;10.00;;;;;;;-1.78;89.77;101577.94;109518;1253;57583;-71
2023/01/25 08:28:13;;;;;;;23.10;9.80;;;;;;;-1.76;89.59;101576.18;109589;1252;61539;-68
2023/01/25 08:31:06;;;;;;;22.90;9.80;;;;;;;-1.75;89.39;101576.35;109554;1252;72065;-67
2023/01/25 08:33:55;;;;;;;23.90;11.00;;;;;;;-1.76;89.08;101575.84;108891;1253;1003030;-70
2023/01/25 08:36:43;;;;;;;25.30;11.10;;;;;;;-1.74;89.12;101576.88;109548;1253;73700;-71
2023/01/25 08:39:31;;;;;;;23.20;10.00;;;;;;;-1.70;89.12;101576.86;109569;1255;57770;-69
2023/01/25 08:42:19;;;;;;;25.30;11.60;;;;;;;-1.68;88.66;101573.54;109562;1252;60036;-68
2023/01/25 08:45:09;;;;;;;24.30;10.20;;;;;;;-1.73;88.24;101570.60;109614;1252;73280;-69
2023/01/25 08:47:58;;;;;;;22.90;10.30;;;;;;;-1.77;88.25;101570.61;109599;1253;66731;-69
2023/01/25 08:50:46;;;;;;;23.50;9.60;;;;;;;-1.81;88.34;101564.88;109566;1253;72762;-69
2023/01/25 08:53:34;;;;;;;23.60;9.40;;;;;;;-1.80;88.72;101564.36;109544;1253;59003;-69
2023/01/25 08:56:22;;;;;;;21.90;10.40;;;;;;;-1.74;89.33;101563.47;109575;1253;59192;-71
2023/01/25 08:59:11;;;;;;;23.80;11.40;;;;;;;-1.73;88.74;101558.94;109546;1253;73703;-71
2023/01/25 09:02:00;;;;;;;23.90;10.50;;;;;;;-1.68;88.42;101562.41;109586;1253;67975;-67
2023/01/25 09:04:48;;;;;;;23.80;10.90;;;;;;;-1.66;88.19;101563.27;109530;1252;73673;-69
2023/01/25 09:07:37;;;;;;;24.60;10.10;;;;;;;-1.68;87.82;101562.23;108856;1253;1002977;-69
2023/01/25 09:10:25;;;;;;;23.10;11.10;;;;;;;-1.69;88.10;101562.06;108730;1252;1002349;-68
2023/01/25 09:13:13;;;;;;;24.90;11.00;;;;;;;-1.61;88.47;101565.88;109520;1252;72717;-69
2023/01/25 09:16:06;;;;;;;22.90;10.70;;;;;;;-1.53;87.57;101562.20;108807;1253;1002196;-68
2023/01/25 09:19:04;;;;;;;26.00;12.00;;;;;;;-1.53;87.21;101553.48;109614;1253;73650;-69
2023/01/25 09:21:52;;;;;;;24.80;10.50;;;;;;;-1.51;87.08;101556.26;109550;1253;57331;-68
2023/01/25 09:24:40;;;;;;;19.80;9.20;;;;;;;-1.54;86.99;101550.88;109514;1254;57970;-69
2023/01/25 09:27:28;;;;;;;25.40;11.50;;;;;;;-1.49;87.35;101551.55;109555;1253;71041;-70
2023/01/25 09:30:17;;;;;;;25.10;12.00;;;;;;;-1.44;86.96;101545.61;109588;1253;68669;-69
2023/01/25 09:33:07;;;;;;;24.60;10.20;;;;;;;-1.38;86.56;101543.48;109536;1256;72604;-70
2023/01/25 09:35:55;;;;;;;23.60;10.70;;;;;;;-1.33;85.80;101536.17;108738;1254;1002757;-69
2023/01/25 09:38:44;;;;;;;24.30;9.80;;;;;;;-1.38;85.33;101526.42;109552;1253;60275;-70
2023/01/25 09:41:41;;;;;;;20.80;9.00;;;;;;;-1.48;85.63;101510.80;109571;1253;73899;-72
2023/01/25 09:44:43;;;;;;;22.60;9.50;;;;;;;-1.43;85.77;101511.13;109570;1252;66597;-68
2023/01/25 09:47:45;;;;;;;20.60;9.20;;;;;;;-1.38;85.83;101510.92;109537;1253;72540;-69
2023/01/25 09:51:00;;;;;;;21.90;10.40;;;;;;;-1.28;85.72;101509.66;109537;1253;59459;-71
2023/01/25 09:53:52;;;;;;;20.30;8.70;;;;;;;-1.13;84.93;101498.26;109294;1254;61076;-70
2023/01/25 09:56:40;;;;;;;23.20;11.00;;;;;;;-1.11;84.19;101492.33;109323;1254;73424;-72
2023/01/25 09:59:29;;;;;;;28.40;12.60;;;;;;;-1.10;84.15;101485.50;109227;1254;67918;-70
2023/01/25 10:03:05;;;;;;;23.60;10.90;;;;;;;-1.03;83.42;101478.32;109136;1254;73739;-70
2023/01/25 10:05:58;;;;;;;23.60;11.20;;;;;;;-1.08;83.61;101476.09;109306;1254;58957;-71
2023/01/25 10:09:04;;;;;;;22.30;11.10;;;;;;;-1.06;83.18;101465.10;109429;1253;58934;-69
2023/01/25 10:11:51;;;;;;;25.40;12.00;;;;;;;-0.90;82.72;101456.62;109413;1254;73683;-70
2023/01/25 10:14:39;;;;;;;27.30;12.40;;;;;;;-0.53;81.14;101452.29;109472;1254;66416;-67
2023/01/25 10:17:40;;;;;;;27.50;12.70;;;;;;;-0.28;79.73;101451.52;109439;1254;73368;-69
2023/01/25 10:20:48;;;;;;;26.30;11.30;;;;;;;-0.29;78.76;101446.11;109216;1254;57359;-71
2023/01/25 10:24:03;;;;;;;24.60;11.30;;;;;;;-0.22;79.05;101433.84;109351;1254;61505;-71
2023/01/25 10:27:01;;;;;;;28.40;13.40;;;;;;;-0.14;78.39;101425.20;109401;1254;72985;-67
2023/01/25 10:29:55;;;;;;;31.70;14.50;;;;;;;-0.10;78.63;101424.98;109293;1254;66718;-68
2023/01/25 10:32:43;;;;;;;30.00;13.30;;;;;;;0.00;78.51;101418.73;109205;1254;72726;-66
2023/01/25 10:35:46;;;;;;;34.70;14.90;;;;;;;0.23;77.91;101417.58;109423;1253;57320;-69
2023/01/25 10:38:41;;;;;;;31.10;14.00;;;;;;;0.72;77.32;101401.51;107939;1254;1002705;-70
2023/01/25 10:41:40;;;;;;;25.80;13.00;;;;;;;1.75;76.66;101400.20;109280;1253;73868;-67
2023/01/25 10:44:28;;;;;;;28.70;14.30;;;;;;;4.02;67.07;101394.68;109478;1254;67700;-69
2023/01/25 10:47:49;;;;;;;31.00;15.70;;;;;;;5.86;59.51;101384.63;109439;1253;71560;-69
2023/01/25 10:50:38;;;;;;;31.00;16.20;;;;;;;7.19;52.55;101369.33;108591;1254;1002292;-69
2023/01/25 10:53:36;;;;;;;30.10;15.60;;;;;;;8.02;50.43;101360.92;109546;1251;61080;-70
2023/01/25 10:56:25;;;;;;;30.50;16.30;;;;;;;8.25;48.46;101351.02;109612;1251;73193;-71
2023/01/25 10:59:27;;;;;;;33.70;17.30;;;;;;;9.36;46.35;101345.55;109544;1251;66566;-69
2023/01/25 11:02:34;;;;;;;33.70;17.80;;;;;;;10.44;45.42;101343.60;109533;1251;71362;-69
2023/01/25 11:05:40;;;;;;;38.00;19.00;;;;;;;11.34;43.37;101335.49;109565;1251;58992;-67
2023/01/25 11:08:28;;;;;;;34.70;18.90;;;;;;;11.75;41.10;101332.65;109580;1251;58688;-69
2023/01/25 11:11:35;;;;;;;37.30;19.90;;;;;;;11.79;39.78;101324.55;109649;1251;73055;-69
2023/01/25 11:14:28;;;;;;;36.20;19.60;;;;;;;12.21;39.63;101310.22;109639;1251;68611;-70
2023/01/25 11:17:30;;;;;;;38.00;19.70;;;;;;;12.32;37.78;101301.15;109549;1251;72814;-69
2023/01/25 11:20:20;;;;;;;38.60;20.90;;;;;;;12.42;37.29;101300.70;109552;1251;57666;-66
2023/01/25 11:23:26;;;;;;;40.50;20.30;;;;;;;12.31;36.37;101298.70;109576;1251;58387;-68
2023/01/25 11:26:16;;;;;;;39.10;20.30;;;;;;;12.31;37.25;101296.73;109616;1251;73180;-67
2023/01/25 11:29:10;;;;;;;42.70;21.50;;;;;;;12.16;36.54;101286.54;109571;1251;68042;-69
2023/01/25 11:31:58;;;;;;;41.30;21.60;;;;;;;12.09;36.87;101272.05;109599;1251;73453;-70
2023/01/25 11:34:48;;;;;;;39.40;20.30;;;;;;;11.71;36.06;101265.89;109642;1251;58118;-68
2023/01/25 11:38:09;;;;;;;42.00;21.90;;;;;;;10.94;37.27;101264.20;109495;1251;61054;-68
2023/01/25 11:41:27;;;;;;;47.30;22.00;;;;;;;10.74;37.99;101265.77;109599;1251;73736;-68
2023/01/25 11:44:36;;;;;;;45.00;22.60;;;;;;;10.32;38.38;101262.30;109588;1251;68116;-68
2023/01/25 11:47:41;;;;;;;48.40;23.50;;;;;;;10.15;39.41;101252.08;109569;1251;71650;-70
2023/01/25 11:50:48;;;;;;;48.10;22.20;;;;;;;10.06;39.49;101244.61;109557;1251;57261;-70
2023/01/25 11:54:07;;;;;;;47.10;22.30;;;;;;;8.87;40.31;101244.48;109522;1251;61479;-68
2023/01/25 11:57:00;;;;;;;51.20;25.20;;;;;;;8.64;41.96;101242.83;109554;1251;74285;-67
2023/01/25 12:00:13;;;;;;;47.70;23.10;;;;;;;8.46;42.13;101233.44;109589;1251;68860;-69
2023/01/25 12:03:07;;;;;;;49.70;21.60;;;;;;;8.12;43.17;101227.67;109562;1251;72502;-70
2023/01/25 12:06:22;;;;;;;49.40;23.00;;;;;;;7.83;43.54;101224.98;109608;1251;58053;-69
2023/01/25 12:09:45;;;;;;;48.00;23.40;;;;;;;7.52;43.97;101222.77;109631;1251;60247;-71
2023/01/25 12:12:56;;;;;;;45.80;22.20;;;;;;;7.29;44.80;101220.11;109602;1251;73123;-70
2023/01/25 12:16:52;;;;;;;49.00;23.90;;;;;;;7.23;45.04;101212.79;109518;1251;67721;-69
2023/01/25 12:20:34;;;;;;;43.70;21.60;;;;;;;7.22;45.42;101207.02;109037;1260;73458;-68
2023/01/25 12:23:31;;;;;;;42.70;20.10;;;;;;;7.03;45.99;101189.17;108622;1266;57790;-70
2023/01/25 12:26:41;;;;;;;43.30;22.20;;;;;;;6.92;46.03;101189.66;108660;1266;60029;-69
2023/01/25 12:29:35;;;;;;;45.20;22.40;;;;;;;6.56;46.72;101183.96;108588;1267;73936;-70
2023/01/25 12:32:40;;;;;;;46.20;22.40;;;;;;;6.37;47.40;101180.90;108698;1265;68122;-68
2023/01/25 12:35:40;;;;;;;47.60;22.70;;;;;;;6.19;47.70;101178.99;108592;1267;73976;-70
2023/01/25 12:39:11;;;;;;;43.20;21.10;;;;;;;5.95;48.47;101174.46;108582;1265;58673;-69
2023/01/25 12:42:34;;;;;;;45.60;21.90;;;;;;;5.88;49.07;101170.72;108236;1270;60659;-69
2023/01/25 12:45:36;;;;;;;37.80;19.50;;;;;;;5.78;49.25;101167.24;108037;1270;72697;-69
2023/01/25 12:48:40;;;;;;;40.30;19.00;;;;;;;5.57;49.53;101168.08;108055;1270;65806;-70
2023/01/25 12:51:41;;;;;;;41.60;21.40;;;;;;;5.29;50.27;101164.41;108138;1270;71939;-69
2023/01/25 12:54:36;;;;;;;38.80;18.90;;;;;;;5.07;51.03;101158.19;108664;1263;57518;-69
2023/01/25 12:57:43;;;;;;;36.70;18.50;;;;;;;4.80;51.74;101153.01;108706;1263;61036;-70
2023/01/25 13:00:55;;;;;;;39.30;18.70;;;;;;;4.31;52.91;101153.31;108932;1259;71673;-69
2023/01/25 13:04:02;;;;;;;37.70;17.60;;;;;;;3.79;54.34;101150.48;109085;1260;67595;-71